Portada
METAR-TAF:

METAR-TAF

Aeroports :

Yap, Micronèsia

latitud: 09-29N, longitud: 138-05E, altitud: 28 m

Observació

L'informe es va fer fa 1 hora i 14 minuts, a les 12:50 UTC
Vent 4 kt amb direcció variable
Temperatura 27°C
Humitat 84%
Pressió 1012 hPa
Visibilitat: 19.3 km
Escasses núvols a una alçada de 1600 ft
Cel ennuvolat a una alçada de 30000 ft

METAR: PTYA 311250Z VRB04KT 12SM FEW016 BKN300 27/24 A2988 RMK SLP120 T02700242

Hora: 00:04 (14:04 UTC)

Pronòstic

L'informe es va fer fa 2 hores i 44 minuts, a les 11:20 UTC
Pronòstic vàlid del 31 a les 12 UTC al 01 a les 12 UTC
Vent 11 kt del Est
Visibilitat: 10 km
Escasses núvols a una alçada de 1800 ft
Núvols disperses a una alçada de 5000 ft
xàfecs en les proximitats

TAF: PTYA 311120Z 3112/0112 08011KT P6SM VCSH FEW018 SCT050

Observacions i pronòstics meteorològics de més de 4000 aeroports (METAR i TAF).

Les estacions disponibles són els punts grocs i vermells al mapa.

Posi el ratolí al punt desitjat per veure el nom de l'estació.

Feu clic per veure les observacions i els pronòstics meteorològics.

Per canviar el mapa: feu clic els botons verds amb una creu de color negre per apropar; al botó verd amb un guió per allunyar la imatge; o en les fletxes verdes per a mapes adjacents.


METAR-TAF: